Time;durP1;ratioP1;P1;durP2;ratioP2;P2;SDS_P1;SDS_P2;PMS_P1;PMS_P2;Temp;Humidity;BMP_temperature;BMP_pressure;BME280_temperature;BME280_humidity;BME280_pressure;Samples;Min_cycle;Max_cycle;Signal;HPM_P1;HPM_P2
2021/01/04 00:02:38;;;;;;;13.13;8.50;;;1.60;96.90;;;;;;5020831;28;20503;-76
2021/01/04 00:05:13;;;;;;;15.07;10.55;;;1.60;96.90;;;;;;5034651;28;20048;-76
2021/01/04 00:07:59;;;;;;;14.73;10.10;;;1.50;97.00;;;;;;5048438;28;20512;-76
2021/01/04 00:10:36;;;;;;;;;;;1.60;97.00;;;;;;5025099;28;20044;-76
2021/01/04 00:13:07;;;;;;;13.85;9.23;;;1.60;96.80;;;;;;5031265;28;20468;-77
2021/01/04 00:15:34;;;;;;;12.93;9.23;;;1.60;96.90;;;;;;5058846;28;20041;-76
2021/01/04 00:18:11;;;;;;;12.95;9.80;;;1.60;96.90;;;;;;5039642;28;20055;-77
2021/01/04 00:21:03;;;;;;;13.50;8.88;;;1.50;96.90;;;;;;5056221;28;20035;-77
2021/01/04 00:23:55;;;;;;;14.20;9.43;;;1.50;97.00;;;;;;5040555;28;20120;-77
2021/01/04 00:26:28;;;;;;;12.10;8.52;;;1.60;96.80;;;;;;5013642;28;20106;-77
2021/01/04 00:28:53;;;;;;;15.65;10.35;;;1.60;96.80;;;;;;4997019;28;20049;-77
2021/01/04 00:31:24;;;;;;;12.20;8.18;;;1.60;96.90;;;;;;5006249;28;20104;-76
2021/01/04 00:34:08;;;;;;;13.10;10.23;;;1.60;97.00;;;;;;5041999;28;20140;-77
2021/01/04 00:36:37;;;;;;;13.45;9.20;;;1.50;96.90;;;;;;4998506;28;20033;-77
2021/01/04 00:39:12;;;;;;;14.95;10.52;;;1.60;96.90;;;;;;5045301;28;20037;-76
2021/01/04 00:42:08;;;;;;;11.18;8.07;;;1.50;96.90;;;;;;5010472;28;20025;-76
2021/01/04 00:45:04;;;;;;;12.60;9.88;;;1.50;97.00;;;;;;5009328;28;20055;-77
2021/01/04 00:47:40;;;;;;;10.82;7.75;;;1.50;97.20;;;;;;5025220;28;20033;-76
2021/01/04 00:50:21;;;;;;;10.63;7.88;;;1.50;97.00;;;;;;5012135;28;20533;-76
2021/01/04 00:52:58;;;;;;;13.50;10.98;;;1.50;97.00;;;;;;4997417;28;20052;-76
2021/01/04 00:55:41;;;;;;;11.82;9.10;;;1.50;97.00;;;;;;5011860;28;20056;-77
2021/01/04 00:58:31;;;;;;;14.45;9.95;;;1.50;97.00;;;;;;5043075;28;20045;-76
2021/01/04 01:01:19;;;;;;;13.77;10.27;;;1.50;97.10;;;;;;5029049;28;20037;-76
2021/01/04 01:04:01;;;;;;;12.65;10.40;;;1.50;97.00;;;;;;4931291;28;20048;-76
2021/01/04 01:06:49;;;;;;;10.60;8.77;;;1.50;97.00;;;;;;5006813;28;20029;-76
2021/01/04 01:09:14;;;;;;;12.98;9.23;;;1.40;97.00;;;;;;5058972;28;20089;-76
2021/01/04 01:12:04;;;;;;;12.52;9.15;;;1.50;97.10;;;;;;5009525;28;20498;-76
2021/01/04 01:14:47;;;;;;;13.07;10.13;;;1.50;97.00;;;;;;5025354;28;20033;-76
2021/01/04 01:17:39;;;;;;;13.35;9.50;;;1.40;97.00;;;;;;5026982;28;20032;-76
2021/01/04 01:20:06;;;;;;;11.93;9.05;;;1.50;97.00;;;;;;5011355;28;20032;-76
2021/01/04 01:22:36;;;;;;;13.35;9.40;;;1.50;97.00;;;;;;5006938;28;20496;-76
2021/01/04 01:25:09;;;;;;;11.90;9.27;;;1.50;96.90;;;;;;5041355;28;20029;-76
2021/01/04 01:27:46;;;;;;;14.90;10.73;;;1.50;96.90;;;;;;5004843;28;20118;-76
2021/01/04 01:30:22;;;;;;;14.38;9.05;;;1.50;96.90;;;;;;5042649;28;20405;-76
2021/01/04 01:33:01;;;;;;;13.82;8.95;;;1.40;97.00;;;;;;4993423;28;20448;-76
2021/01/04 01:35:52;;;;;;;14.40;9.68;;;1.40;97.00;;;;;;5023805;28;20560;-76
2021/01/04 01:38:29;;;;;;;14.05;10.48;;;1.40;97.00;;;;;;5025042;28;20036;-76
2021/01/04 01:41:07;;;;;;;14.93;11.73;;;1.40;97.00;;;;;;5024675;28;20036;-76
2021/01/04 01:44:10;;;;;;;14.30;10.15;;;1.40;96.90;;;;;;5040083;28;20040;-76
2021/01/04 01:46:53;;;;;;;13.43;10.07;;;1.40;96.90;;;;;;5040328;28;20502;-77
2021/01/04 01:49:40;;;;;;;14.43;9.35;;;1.30;96.90;;;;;;5040294;28;20175;-76
2021/01/04 01:52:05;;;;;;;;;;;1.30;97.00;;;;;;5043590;28;20079;-76
2021/01/04 01:54:47;;;;;;;14.27;9.40;;;1.30;96.90;;;;;;5042020;28;20322;-76
2021/01/04 01:57:37;;;;;;;16.75;10.00;;;1.30;97.00;;;;;;5039221;28;20037;-76
2021/01/04 02:00:08;;;;;;;14.40;9.15;;;1.40;96.90;;;;;;5024323;28;20108;-76
2021/01/04 02:02:56;;;;;;;14.75;10.48;;;1.30;96.90;;;;;;5026079;28;20397;-76
2021/01/04 02:05:49;;;;;;;14.45;10.75;;;1.40;96.90;;;;;;5006913;28;20519;-76
2021/01/04 02:08:20;;;;;;;16.63;10.60;;;1.30;97.00;;;;;;5026193;28;20115;-76
2021/01/04 02:10:53;;;;;;;15.70;10.35;;;1.30;96.90;;;;;;5008034;28;20041;-76
2021/01/04 02:13:22;;;;;;;15.88;11.60;;;1.30;97.00;;;;;;5005733;28;20431;-76
2021/01/04 02:16:07;;;;;;;15.93;10.65;;;1.30;97.20;;;;;;5022512;28;20038;-76
2021/01/04 02:18:36;;;;;;;16.30;11.27;;;1.30;97.00;;;;;;5021251;28;20041;-76
2021/01/04 02:21:34;;;;;;;14.43;9.70;;;1.40;97.00;;;;;;5023434;28;20279;-76
2021/01/04 02:24:16;;;;;;;17.80;11.80;;;1.40;97.10;;;;;;5041739;28;20029;-76
2021/01/04 02:27:08;;;;;;;16.27;11.18;;;1.40;96.90;;;;;;5040693;28;20044;-76
2021/01/04 02:29:34;;;;;;;17.85;11.35;;;1.40;96.90;;;;;;5006104;28;20041;-76
2021/01/04 02:32:01;;;;;;;16.15;11.48;;;1.30;97.00;;;;;;5007018;28;20495;-76
2021/01/04 02:34:31;;;;;;;19.20;13.25;;;1.30;97.00;;;;;;5008263;28;20576;-76
2021/01/04 02:36:57;;;;;;;18.20;13.07;;;1.30;97.00;;;;;;5026103;28;20037;-76
2021/01/04 02:39:59;;;;;;;18.92;12.55;;;1.30;97.10;;;;;;5012308;28;20029;-77
2021/01/04 02:42:32;;;;;;;17.23;12.25;;;1.30;97.10;;;;;;5020218;28;20361;-76
2021/01/04 02:44:59;;;;;;;17.35;11.63;;;1.30;97.10;;;;;;5009386;28;20021;-76
2021/01/04 02:47:45;;;;;;;18.65;12.13;;;1.40;97.20;;;;;;5010159;28;20033;-77
2021/01/04 02:50:36;;;;;;;19.85;12.25;;;1.30;97.10;;;;;;5040255;28;20061;-76
2021/01/04 02:53:34;;;;;;;17.38;12.93;;;1.40;97.10;;;;;;5042382;28;20657;-77
2021/01/04 02:56:28;;;;;;;18.65;13.05;;;1.30;97.10;;;;;;5013242;28;20029;-76
2021/01/04 02:59:04;;;;;;;17.50;12.07;;;1.40;97.10;;;;;;5041948;28;20029;-76
2021/01/04 03:01:35;;;;;;;18.02;10.98;;;1.30;97.00;;;;;;5006161;28;20033;-76
2021/01/04 03:04:01;;;;;;;16.27;11.20;;;1.30;97.10;;;;;;5012366;28;20037;-76
2021/01/04 03:06:35;;;;;;;17.58;11.27;;;1.30;97.20;;;;;;5011403;28;20037;-76
2021/01/04 03:09:00;;;;;;;16.65;11.93;;;1.30;97.20;;;;;;5012114;28;20457;-76
2021/01/04 03:11:26;;;;;;;14.32;10.20;;;1.30;97.00;;;;;;4996337;28;20129;-76
2021/01/04 03:14:07;;;;;;;16.10;10.05;;;1.20;96.90;;;;;;5010150;28;20366;-76
2021/01/04 03:17:07;;;;;;;17.33;9.88;;;1.20;96.90;;;;;;5014098;28;20503;-76
2021/01/04 03:19:32;;;;;;;13.63;9.07;;;1.10;96.80;;;;;;5056407;28;20033;-76
2021/01/04 03:22:02;;;;;;;13.85;9.43;;;1.10;96.80;;;;;;5025276;28;20507;-76
2021/01/04 03:24:27;;;;;;;13.63;9.20;;;1.00;96.70;;;;;;4996531;28;20108;-76
2021/01/04 03:27:05;;;;;;;16.65;9.68;;;1.00;96.80;;;;;;4996247;28;20381;-76
2021/01/04 03:29:31;;;;;;;14.23;10.98;;;0.90;96.80;;;;;;5026487;28;20029;-76
2021/01/04 03:31:56;;;;;;;13.75;9.32;;;0.90;96.80;;;;;;5013987;28;20250;-76
2021/01/04 03:34:22;;;;;;;15.68;11.13;;;0.90;96.80;;;;;;5011915;28;20056;-76
2021/01/04 03:36:48;;;;;;;15.65;10.52;;;0.90;96.80;;;;;;5011980;28;20060;-77
2021/01/04 03:39:13;;;;;;;14.85;9.07;;;0.80;96.80;;;;;;4997011;28;20048;-76
2021/01/04 03:41:39;;;;;;;18.50;12.18;;;0.90;96.80;;;;;;5011914;28;20366;-76
2021/01/04 03:44:05;;;;;;;16.55;10.50;;;0.80;96.80;;;;;;5027919;28;20041;-76
2021/01/04 03:46:31;;;;;;;17.60;11.68;;;0.80;96.80;;;;;;4996065;28;20464;-76
2021/01/04 03:48:56;;;;;;;17.65;10.63;;;0.80;96.70;;;;;;5027927;28;20033;-76
2021/01/04 03:51:22;;;;;;;19.55;11.68;;;0.80;96.90;;;;;;5026752;28;20036;-76
2021/01/04 03:53:47;;;;;;;20.27;12.07;;;0.80;96.80;;;;;;5028105;28;20104;-76
2021/01/04 03:56:14;;;;;;;17.23;11.32;;;0.80;96.80;;;;;;5012326;28;20036;-76
2021/01/04 03:58:40;;;;;;;17.98;11.25;;;0.80;96.90;;;;;;5009340;28;20081;-76
2021/01/04 04:01:05;;;;;;;18.77;11.23;;;0.80;96.80;;;;;;5014063;28;20072;-76
2021/01/04 04:03:31;;;;;;;19.05;10.80;;;0.80;96.80;;;;;;4997407;28;20111;-76
2021/01/04 04:05:56;;;;;;;22.38;11.38;;;0.80;96.80;;;;;;5028704;28;20028;-76
2021/01/04 04:08:22;;;;;;;41.03;12.38;;;0.80;96.80;;;;;;5012641;28;20067;-76
2021/01/04 04:10:47;;;;;;;28.27;11.70;;;0.80;96.80;;;;;;5028032;28;20631;-76
2021/01/04 04:13:13;;;;;;;35.67;12.55;;;0.70;96.80;;;;;;5011145;28;20029;-76
2021/01/04 04:15:38;;;;;;;19.80;11.55;;;0.80;96.80;;;;;;5025030;28;20041;-76
2021/01/04 04:18:04;;;;;;;36.25;10.70;;;0.70;96.80;;;;;;5013851;28;20022;-76
2021/01/04 04:20:29;;;;;;;33.47;11.13;;;0.70;96.80;;;;;;5025673;28;20037;-76
2021/01/04 04:22:55;;;;;;;21.73;10.98;;;0.70;96.70;;;;;;5041109;28;20034;-76
2021/01/04 04:25:22;;;;;;;20.55;11.70;;;0.80;96.80;;;;;;5027431;28;20452;-76
2021/01/04 04:27:47;;;;;;;25.17;10.70;;;0.70;96.70;;;;;;5009074;28;20032;-76
2021/01/04 04:30:15;;;;;;;15.60;10.23;;;0.70;96.80;;;;;;5009246;28;20033;-76
2021/01/04 04:32:41;;;;;;;21.48;13.02;;;0.80;96.80;;;;;;5025162;28;20665;-76
2021/01/04 04:35:07;;;;;;;19.73;10.77;;;0.70;96.70;;;;;;5011854;28;20033;-76
2021/01/04 04:37:33;;;;;;;20.25;12.75;;;0.80;96.90;;;;;;5029374;28;20037;-76
2021/01/04 04:39:58;;;;;;;20.10;13.10;;;0.70;96.80;;;;;;5060636;28;20036;-76
2021/01/04 04:42:24;;;;;;;18.42;12.43;;;0.60;96.90;;;;;;5011431;28;20021;-76
2021/01/04 04:44:57;;;;;;;22.90;13.68;;;0.60;96.90;;;;;;5013078;28;20354;-76
2021/01/04 04:47:51;;;;;;;17.73;11.40;;;0.70;97.00;;;;;;5007910;28;20033;-76
2021/01/04 04:50:35;;;;;;;20.92;13.70;;;0.70;97.20;;;;;;5028978;28;20055;-76
2021/01/04 04:53:02;;;;;;;22.70;14.50;;;0.70;97.00;;;;;;5059573;28;20064;-76
2021/01/04 04:55:49;;;;;;;22.65;15.32;;;0.70;96.90;;;;;;5015114;28;20120;-76
2021/01/04 04:58:42;;;;;;;20.00;11.30;;;0.70;96.90;;;;;;5044591;28;20122;-76
2021/01/04 05:01:20;;;;;;;19.05;11.63;;;0.70;97.00;;;;;;5042948;28;20068;-76
2021/01/04 05:04:00;;;;;;;20.02;11.82;;;0.70;97.00;;;;;;5011564;28;20092;-76
2021/01/04 05:06:43;;;;;;;19.63;12.15;;;0.70;96.90;;;;;;5041573;28;20025;-76
2021/01/04 05:09:29;;;;;;;21.83;12.20;;;0.70;97.00;;;;;;5041163;28;20103;-75
2021/01/04 05:12:11;;;;;;;18.88;11.63;;;0.70;97.10;;;;;;5026488;28;20025;-75
2021/01/04 05:14:40;;;;;;;18.90;12.25;;;0.60;97.00;;;;;;5027674;28;20095;-76
2021/01/04 05:17:19;;;;;;;18.50;11.73;;;0.70;97.00;;;;;;4994891;28;20507;-76
2021/01/04 05:19:51;;;;;;;18.90;11.20;;;0.70;97.10;;;;;;5009911;28;20120;-76
2021/01/04 05:22:37;;;;;;;18.52;12.10;;;0.70;97.00;;;;;;5044156;28;20091;-76
2021/01/04 05:25:21;;;;;;;20.25;13.55;;;0.70;97.10;;;;;;5040943;28;20496;-76
2021/01/04 05:28:05;;;;;;;16.48;10.27;;;0.70;97.00;;;;;;5025575;28;20021;-75
2021/01/04 05:30:37;;;;;;;20.15;13.85;;;0.70;97.10;;;;;;5040262;28;20168;-76
2021/01/04 05:33:23;;;;;;;18.63;11.65;;;0.70;97.00;;;;;;5026003;28;20037;-76
2021/01/04 05:35:48;;;;;;;18.70;13.52;;;0.70;97.10;;;;;;5011196;28;20075;-76
2021/01/04 05:38:21;;;;;;;19.92;12.32;;;0.70;97.00;;;;;;5009792;28;20254;-76
2021/01/04 05:41:09;;;;;;;19.48;13.23;;;0.70;97.10;;;;;;5009575;28;20428;-76
2021/01/04 05:44:10;;;;;;;18.75;12.82;;;0.70;97.10;;;;;;5012542;28;20060;-77
2021/01/04 05:47:04;;;;;;;19.67;12.25;;;0.80;97.00;;;;;;4995797;28;20040;-77
2021/01/04 05:49:36;;;;;;;24.75;17.27;;;0.80;97.20;;;;;;5003347;28;20040;-77
2021/01/04 05:52:01;;;;;;;19.83;12.80;;;0.70;97.10;;;;;;5010596;28;20452;-77
2021/01/04 05:54:29;;;;;;;19.80;13.95;;;0.80;97.20;;;;;;5010301;28;20033;-77
2021/01/04 05:57:05;;;;;;;20.45;13.18;;;0.80;97.20;;;;;;4993872;28;20033;-77
2021/01/04 05:59:30;;;;;;;21.27;14.18;;;0.80;97.20;;;;;;5033216;28;20033;-77
2021/01/04 06:02:03;;;;;;;17.92;12.02;;;0.80;97.30;;;;;;5045907;28;20048;-77
2021/01/04 06:04:29;;;;;;;23.75;16.00;;;0.80;97.20;;;;;;4993691;28;20040;-77
2021/01/04 06:07:02;;;;;;;17.20;12.38;;;0.80;97.20;;;;;;5012370;28;20029;-77
2021/01/04 06:09:28;;;;;;;18.13;11.90;;;0.90;97.30;;;;;;5009180;28;20068;-77
2021/01/04 06:11:58;;;;;;;19.45;12.55;;;0.80;97.20;;;;;;5008887;28;20532;-77
2021/01/04 06:14:30;;;;;;;18.85;11.77;;;0.90;97.30;;;;;;5026498;28;20542;-77
2021/01/04 06:17:01;;;;;;;19.55;13.10;;;0.90;97.30;;;;;;4992007;28;20486;-77
2021/01/04 06:19:26;;;;;;;17.63;11.48;;;0.90;97.20;;;;;;4993868;28;20029;-77
2021/01/04 06:21:57;;;;;;;19.67;12.25;;;0.90;97.30;;;;;;5023727;28;20083;-77
2021/01/04 06:24:32;;;;;;;18.50;12.18;;;0.90;97.30;;;;;;5010351;28;20032;-77
2021/01/04 06:27:29;;;;;;;16.55;12.27;;;1.00;97.30;;;;;;5001977;28;20038;-77
2021/01/04 06:29:54;;;;;;;19.98;13.88;;;1.00;97.30;;;;;;4992633;28;20133;-77
2021/01/04 06:32:31;;;;;;;19.10;12.32;;;1.00;97.40;;;;;;5020208;28;20572;-77
2021/01/04 06:35:19;;;;;;;17.83;13.77;;;1.00;97.40;;;;;;5019541;28;20040;-77
2021/01/04 06:37:45;;;;;;;17.25;11.80;;;1.00;97.40;;;;;;4992951;28;20389;-77
2021/01/04 06:40:35;;;;;;;17.80;11.75;;;1.00;97.40;;;;;;5008757;28;20030;-77
2021/01/04 06:43:12;;;;;;;19.23;13.00;;;1.10;97.40;;;;;;5021550;28;20300;-77
2021/01/04 06:45:44;;;;;;;18.13;11.20;;;1.00;97.30;;;;;;5024316;28;20072;-77
2021/01/04 06:48:18;;;;;;;17.35;11.90;;;1.10;97.40;;;;;;5024698;28;20030;-76
2021/01/04 06:51:04;;;;;;;19.92;11.73;;;1.10;97.40;;;;;;4990993;28;20712;-78
2021/01/04 06:54:00;;;;;;;18.67;12.00;;;1.10;97.50;;;;;;5018520;28;20029;-78
2021/01/04 06:57:03;;;;;;;23.30;15.35;;;1.10;97.40;;;;;;5016498;28;20032;-80
2021/01/04 06:59:53;;;;;;;19.63;11.73;;;1.10;97.50;;;;;;5029495;28;20037;-80
2021/01/04 07:02:21;;;;;;;16.90;10.93;;;1.10;97.50;;;;;;5031039;28;20440;-79
2021/01/04 07:05:17;;;;;;;18.63;12.38;;;1.10;97.50;;;;;;5020766;28;20067;-78
2021/01/04 07:08:01;;;;;;;16.30;10.97;;;1.20;97.40;;;;;;5031424;28;20126;-78
2021/01/04 07:10:41;;;;;;;17.13;10.60;;;1.10;97.40;;;;;;5026717;28;20485;-79
2021/01/04 07:13:20;;;;;;;16.08;10.10;;;1.10;97.40;;;;;;5009435;28;20029;-76
2021/01/04 07:16:14;;;;;;;18.88;11.98;;;1.20;97.40;;;;;;5008368;28;20541;-77
2021/01/04 07:19:17;;;;;;;19.63;12.63;;;1.20;97.40;;;;;;4976069;28;20040;-78
2021/01/04 07:21:54;;;;;;;18.42;11.68;;;1.20;97.40;;;;;;4988798;28;20087;-78
2021/01/04 07:24:42;;;;;;;19.73;13.02;;;1.20;97.40;;;;;;5026003;28;20037;-79
2021/01/04 07:27:13;;;;;;;18.23;11.93;;;1.20;97.40;;;;;;4987832;28;20585;-78
2021/01/04 07:29:50;;;;;;;18.05;12.05;;;1.20;97.50;;;;;;5028419;28;20108;-76
2021/01/04 07:32:29;;;;;;;20.85;12.15;;;1.20;97.50;;;;;;5000036;28;20173;-75
2021/01/04 07:35:23;;;;;;;17.70;11.88;;;1.20;97.60;;;;;;5027847;28;20031;-76
2021/01/04 07:38:12;;;;;;;16.92;11.25;;;1.20;97.60;;;;;;5035881;28;20087;-78
2021/01/04 07:40:59;;;;;;;17.17;11.70;;;1.20;97.50;;;;;;5019224;28;20033;-78
2021/01/04 07:43:55;;;;;;;19.55;13.25;;;1.20;97.60;;;;;;5029494;28;20496;-78
2021/01/04 07:46:58;;;;;;;17.63;12.27;;;1.20;97.60;;;;;;5010261;28;20025;-78
2021/01/04 07:49:53;;;;;;;20.00;12.63;;;1.20;97.50;;;;;;5042030;28;20049;-79
2021/01/04 07:52:51;;;;;;;19.88;13.85;;;1.20;97.60;;;;;;4985008;28;20111;-78
2021/01/04 07:55:41;;;;;;;19.77;11.68;;;1.20;97.60;;;;;;5037536;28;20029;-78
2021/01/04 07:58:37;;;;;;;18.52;13.13;;;1.20;97.70;;;;;;5020468;28;20047;-79
2021/01/04 08:01:19;;;;;;;18.90;12.10;;;1.20;97.60;;;;;;5043723;28;20040;-76
2021/01/04 08:03:53;;;;;;;24.27;14.95;;;1.20;97.60;;;;;;5021029;28;20044;-76
2021/01/04 08:06:59;;;;;;;19.83;13.07;;;1.20;97.60;;;;;;5026473;28;20562;-77
2021/01/04 08:09:29;;;;;;;19.65;12.73;;;1.20;97.70;;;;;;5046729;28;20436;-76
2021/01/04 08:12:13;;;;;;;19.85;12.65;;;1.30;97.60;;;;;;5026472;28;20481;-77
2021/01/04 08:15:05;;;;;;;18.25;12.15;;;1.30;97.70;;;;;;5028018;28;20087;-77
2021/01/04 08:17:52;;;;;;;18.02;12.85;;;1.30;97.70;;;;;;5011734;28;20531;-76
2021/01/04 08:20:18;;;;;;;23.35;14.52;;;1.30;97.70;;;;;;4978716;28;20022;-77
2021/01/04 08:23:06;;;;;;;20.02;13.25;;;1.30;97.70;;;;;;5018713;28;20068;-76
2021/01/04 08:25:35;;;;;;;18.35;12.63;;;1.30;97.70;;;;;;5020018;28;20556;-77
2021/01/04 08:28:13;;;;;;;18.42;12.00;;;1.30;97.70;;;;;;5022944;28;20057;-77
2021/01/04 08:30:59;;;;;;;19.98;11.30;;;1.30;97.70;;;;;;5019545;28;20378;-77
2021/01/04 08:33:42;;;;;;;22.00;13.33;;;1.30;97.70;;;;;;5019083;28;20401;-77
2021/01/04 08:36:22;;;;;;;22.05;13.38;;;1.30;97.70;;;;;;4982493;28;20033;-77
2021/01/04 08:38:48;;;;;;;20.77;13.93;;;1.30;97.70;;;;;;5019022;28;20060;-77
2021/01/04 08:41:19;;;;;;;20.50;13.95;;;1.40;97.70;;;;;;5002866;28;20026;-78
2021/01/04 08:43:46;;;;;;;20.25;13.57;;;1.40;97.70;;;;;;5022585;28;20026;-78
2021/01/04 08:46:24;;;;;;;20.13;12.95;;;1.40;97.70;;;;;;4990426;28;20076;-78
2021/01/04 08:49:20;;;;;;;21.90;14.88;;;1.40;97.80;;;;;;5022959;28;20397;-79
2021/01/04 08:51:46;;;;;;;18.70;13.10;;;1.40;97.80;;;;;;5020230;28;20085;-78
2021/01/04 08:54:22;;;;;;;18.00;11.18;;;1.40;97.80;;;;;;4992507;28;20032;-78
2021/01/04 08:57:09;;;;;;;20.50;12.73;;;1.40;97.70;;;;;;5037708;28;20125;-78
2021/01/04 08:59:34;;;;;;;23.58;16.63;;;1.40;97.70;;;;;;5006850;28;20485;-79
2021/01/04 09:02:18;;;;;;;22.65;15.00;;;1.40;97.70;;;;;;5022181;28;20029;-79
2021/01/04 09:04:44;;;;;;;22.27;15.27;;;1.40;97.80;;;;;;5005487;28;20049;-78
2021/01/04 09:07:16;;;;;;;20.02;12.52;;;1.50;97.90;;;;;;5005242;28;20056;-78
2021/01/04 09:09:50;;;;;;;18.67;11.02;;;1.40;97.90;;;;;;4990215;28;20038;-79
2021/01/04 09:12:39;;;;;;;19.70;11.82;;;1.50;97.80;;;;;;4985329;28;20465;-79
2021/01/04 09:15:08;;;;;;;19.20;11.52;;;1.50;97.80;;;;;;5007238;28;20581;-79
2021/01/04 09:17:51;;;;;;;20.83;12.18;;;1.50;97.90;;;;;;5023487;28;20029;-79
2021/01/04 09:20:25;;;;;;;20.45;13.90;;;1.60;98.00;;;;;;5017718;28;20026;-80
2021/01/04 09:23:08;;;;;;;17.77;11.13;;;1.60;98.00;;;;;;5023098;28;21092;-79
2021/01/04 09:26:08;;;;;;;19.55;12.23;;;1.60;97.90;;;;;;4985947;28;20033;-80
2021/01/04 09:28:40;;;;;;;15.98;11.38;;;1.60;97.90;;;;;;4996923;28;20403;-78
2021/01/04 09:31:05;;;;;;;14.90;10.23;;;1.60;98.00;;;;;;5014529;28;20039;-80
2021/01/04 09:33:31;;;;;;;16.40;11.27;;;1.60;97.90;;;;;;5006834;28;20400;-79
2021/01/04 09:36:06;;;;;;;15.35;11.07;;;1.70;97.90;;;;;;5042173;28;20043;-81
2021/01/04 09:38:31;;;;;;;15.23;10.05;;;1.70;97.90;;;;;;5020080;28;20040;-80
2021/01/04 09:40:59;;;;;;;17.67;10.45;;;1.70;98.00;;;;;;5005963;28;20041;-79
2021/01/04 09:43:29;;;;;;;15.38;10.18;;;1.70;98.00;;;;;;5007069;28;20037;-78
2021/01/04 09:46:07;;;;;;;16.35;10.80;;;1.70;98.00;;;;;;4989720;28;20434;-79
2021/01/04 09:48:38;;;;;;;15.00;9.75;;;1.70;97.90;;;;;;5009452;28;20464;-79
2021/01/04 09:51:04;;;;;;;14.88;9.60;;;1.70;98.00;;;;;;5022014;28;20064;-79
2021/01/04 09:53:37;;;;;;;15.45;10.68;;;1.70;98.00;;;;;;5022730;28;20171;-79
2021/01/04 09:56:12;;;;;;;15.95;9.50;;;1.70;98.00;;;;;;4998550;28;20033;-78
2021/01/04 09:58:38;;;;;;;15.02;10.70;;;1.70;98.00;;;;;;5006440;28;20068;-77
2021/01/04 10:01:13;;;;;;;13.27;8.18;;;1.70;98.00;;;;;;5036470;28;20037;-80
2021/01/04 10:03:39;;;;;;;14.07;9.18;;;1.70;97.90;;;;;;5036017;28;20044;-78
2021/01/04 10:06:08;;;;;;;13.27;10.38;;;1.80;98.00;;;;;;4992604;28;20393;-77
2021/01/04 10:08:34;;;;;;;14.43;8.95;;;1.80;98.00;;;;;;5011322;28;20124;-78
2021/01/04 10:11:01;;;;;;;12.57;8.70;;;1.80;98.30;;;;;;5038481;28;20128;-77
2021/01/04 10:13:28;;;;;;;13.20;8.85;;;1.80;98.00;;;;;;5026502;28;20075;-78
2021/01/04 10:15:54;;;;;;;10.90;7.30;;;1.90;98.00;;;;;;5017912;28;20079;-78
2021/01/04 10:18:37;;;;;;;11.48;7.45;;;1.80;97.90;;;;;;5008389;28;20041;-78
2021/01/04 10:21:03;;;;;;;11.38;7.72;;;1.90;98.00;;;;;;5035185;28;20038;-78
2021/01/04 10:23:41;;;;;;;11.07;7.40;;;1.90;98.00;;;;;;5021741;28;20039;-78
2021/01/04 10:26:08;;;;;;;13.23;8.98;;;1.90;98.10;;;;;;5021463;28;20541;-79
2021/01/04 10:28:36;;;;;;;13.00;8.82;;;1.90;98.10;;;;;;5019803;28;20517;-80
2021/01/04 10:31:10;;;;;;;12.07;8.23;;;1.90;98.00;;;;;;5024660;28;20041;-78
2021/01/04 10:33:38;;;;;;;13.65;10.30;;;1.90;98.10;;;;;;5007083;28;20041;-79
2021/01/04 10:36:07;;;;;;;10.80;7.32;;;1.90;98.10;;;;;;4991713;28;20095;-79
2021/01/04 10:38:33;;;;;;;10.50;7.70;;;1.90;98.10;;;;;;4989727;28;20060;-78
2021/01/04 10:40:58;;;;;;;12.95;7.90;;;2.00;98.10;;;;;;5026470;28;20040;-78
2021/01/04 10:43:24;;;;;;;12.93;8.50;;;2.00;98.10;;;;;;5011952;28;20072;-78
2021/01/04 10:45:50;;;;;;;11.02;7.10;;;2.00;98.20;;;;;;5041572;28;20029;-79
2021/01/04 10:48:23;;;;;;;11.68;8.73;;;2.00;98.20;;;;;;5023150;28;20075;-78
2021/01/04 10:50:53;;;;;;;9.93;6.28;;;2.00;98.20;;;;;;5000117;28;20128;-79
2021/01/04 10:53:36;;;;;;;13.65;9.23;;;2.00;98.20;;;;;;5010982;28;20021;-79
2021/01/04 10:56:08;;;;;;;10.13;7.22;;;2.10;98.30;;;;;;5028385;28;20107;-80
2021/01/04 10:59:06;;;;;;;11.68;7.53;;;2.10;98.20;;;;;;5041643;28;20442;-79
2021/01/04 11:01:33;;;;;;;13.10;7.65;;;2.10;98.30;;;;;;5035179;28;20040;-79
2021/01/04 11:04:00;;;;;;;10.85;8.25;;;2.20;98.30;;;;;;5030715;28;20040;-79
2021/01/04 11:06:30;;;;;;;12.68;7.80;;;2.20;98.30;;;;;;5023874;28;20108;-80
2021/01/04 11:08:56;;;;;;;12.10;7.25;;;2.20;98.30;;;;;;5012600;28;20045;-80
2021/01/04 11:11:36;;;;;;;11.77;7.80;;;2.30;98.40;;;;;;5021688;28;20037;-79
2021/01/04 11:14:15;;;;;;;11.77;7.28;;;2.30;98.40;;;;;;5025486;28;20493;-79
2021/01/04 11:17:11;;;;;;;14.10;9.40;;;2.30;98.40;;;;;;5034890;28;20141;-79
2021/01/04 11:19:36;;;;;;;15.32;9.00;;;2.40;98.50;;;;;;5006801;28;20037;-79
2021/01/04 11:22:09;;;;;;;13.73;8.30;;;2.40;98.40;;;;;;5007065;28;20443;-79
2021/01/04 11:24:34;;;;;;;13.48;9.40;;;2.50;98.50;;;;;;5022208;28;20091;-79
2021/01/04 11:27:00;;;;;;;12.65;8.90;;;2.50;98.70;;;;;;5007031;28;20420;-79
2021/01/04 11:29:25;;;;;;;13.52;9.23;;;2.60;98.50;;;;;;5023441;28;20034;-79
2021/01/04 11:31:51;;;;;;;12.45;8.10;;;2.60;98.60;;;;;;5023002;28;20041;-78
2021/01/04 11:34:16;;;;;;;14.68;8.75;;;2.60;98.50;;;;;;5006711;28;20022;-78
2021/01/04 11:36:42;;;;;;;12.68;8.20;;;2.70;98.50;;;;;;5017259;28;20036;-78
2021/01/04 11:39:08;;;;;;;12.57;8.35;;;2.80;98.60;;;;;;5005518;28;20036;-79
2021/01/04 11:41:33;;;;;;;12.20;9.07;;;2.80;98.60;;;;;;5022004;28;20030;-79
2021/01/04 11:43:59;;;;;;;14.88;8.80;;;2.90;98.70;;;;;;4991093;28;20042;-79
2021/01/04 11:46:24;;;;;;;13.63;8.13;;;2.90;98.70;;;;;;5019631;28;20034;-78
2021/01/04 11:48:50;;;;;;;15.20;9.77;;;3.00;98.70;;;;;;5007076;28;20034;-78
2021/01/04 11:51:20;;;;;;;16.25;10.15;;;3.00;98.60;;;;;;4992800;28;20385;-78
2021/01/04 11:53:47;;;;;;;16.08;9.98;;;3.00;98.60;;;;;;4998390;28;20108;-78
2021/01/04 11:56:12;;;;;;;17.20;9.48;;;3.10;98.70;;;;;;4992894;28;20033;-79
2021/01/04 11:58:39;;;;;;;16.77;9.88;;;3.10;98.60;;;;;;5017813;28;20092;-79
2021/01/04 12:01:05;;;;;;;17.42;10.80;;;3.10;98.60;;;;;;5002885;28;20038;-78
2021/01/04 12:03:31;;;;;;;16.15;10.38;;;3.10;98.60;;;;;;4998271;28;25057;-79
2021/01/04 12:05:56;;;;;;;15.35;9.73;;;3.20;98.70;;;;;;5024617;28;20454;-78
2021/01/04 12:08:23;;;;;;;16.35;10.27;;;3.10;98.60;;;;;;5023151;28;20573;-78
2021/01/04 12:10:48;;;;;;;13.25;8.82;;;3.20;98.70;;;;;;5020137;28;20124;-79
2021/01/04 12:13:14;;;;;;;13.95;9.30;;;3.20;98.40;;;;;;5007072;28;20117;-79
2021/01/04 12:15:39;;;;;;;14.55;9.77;;;3.20;98.60;;;;;;5006984;28;20038;-78
2021/01/04 12:18:05;;;;;;;15.15;11.45;;;3.20;98.60;;;;;;4991483;28;20029;-78
2021/01/04 12:20:31;;;;;;;14.75;9.60;;;3.30;98.70;;;;;;5004460;28;20394;-79
2021/01/04 12:22:56;;;;;;;14.35;10.63;;;3.30;98.30;;;;;;5005860;28;20037;-79
2021/01/04 12:25:23;;;;;;;16.13;10.45;;;3.30;98.60;;;;;;5005819;28;20032;-78
2021/01/04 12:27:48;;;;;;;17.80;10.88;;;3.30;98.40;;;;;;5030372;28;20125;-78
2021/01/04 12:30:14;;;;;;;13.90;9.23;;;3.30;98.60;;;;;;5027421;28;20056;-79
2021/01/04 12:32:41;;;;;;;15.68;10.07;;;3.30;98.50;;;;;;5030820;28;20496;-78
2021/01/04 12:35:11;;;;;;;17.67;11.23;;;3.30;98.60;;;;;;5028235;28;20718;-78
2021/01/04 12:37:37;;;;;;;18.55;10.73;;;3.30;98.60;;;;;;5024505;28;20039;-78
2021/01/04 12:40:06;;;;;;;17.92;10.73;;;3.30;98.50;;;;;;5014677;28;20083;-79
2021/01/04 12:42:32;;;;;;;20.35;14.57;;;3.30;98.50;;;;;;5007219;28;20043;-79
2021/01/04 12:44:57;;;;;;;21.20;14.55;;;3.20;98.30;;;;;;5012385;28;20109;-78
2021/01/04 12:47:23;;;;;;;20.50;13.32;;;3.20;98.40;;;;;;5028059;28;20021;-78
2021/01/04 12:49:48;;;;;;;17.88;11.90;;;3.20;98.50;;;;;;5009253;28;20076;-78
2021/01/04 12:52:14;;;;;;;21.42;13.57;;;3.20;98.40;;;;;;5012838;28;20418;-78
2021/01/04 12:54:41;;;;;;;21.15;13.95;;;3.20;98.30;;;;;;5027846;28;20048;-78
2021/01/04 12:57:09;;;;;;;23.83;14.55;;;3.20;98.30;;;;;;5039171;28;20033;-78
2021/01/04 12:59:38;;;;;;;20.35;12.93;;;3.10;98.30;;;;;;5009898;28;20041;-78
2021/01/04 13:02:04;;;;;;;19.15;12.60;;;3.10;98.20;;;;;;5021546;28;20396;-78
2021/01/04 13:04:29;;;;;;;19.10;14.82;;;3.10;98.20;;;;;;5018807;28;20033;-78
2021/01/04 13:06:56;;;;;;;18.02;13.55;;;3.10;98.30;;;;;;5025354;28;20044;-79
2021/01/04 13:09:21;;;;;;;17.65;14.82;;;3.10;98.20;;;;;;5025422;28;20484;-78
2021/01/04 13:11:48;;;;;;;19.45;12.13;;;3.00;98.20;;;;;;5026441;28;20049;-79
2021/01/04 13:14:13;;;;;;;17.58;10.82;;;3.00;98.20;;;;;;4999351;28;20041;-78
2021/01/04 13:16:39;;;;;;;14.65;10.45;;;3.00;98.10;;;;;;5003729;28;20037;-79
2021/01/04 13:19:05;;;;;;;16.75;10.10;;;3.00;98.10;;;;;;4654676;28;10000418;-78
2021/01/04 13:21:31;;;;;;;14.43;9.73;;;3.00;98.10;;;;;;5016658;28;20061;-78